Time;durP1;ratioP1;P1;durP2;ratioP2;P2;SDS_P1;SDS_P2;PMS_P1;PMS_P2;Temp;Humidity;BMP_temperature;BMP_pressure;BME280_temperature;BME280_humidity;BME280_pressure;Samples;Min_cycle;Max_cycle;Signal;HPM_P1;HPM_P2
2021/03/26 00:02:23;;;;;;;12.53;5.87;;;;;;;0.69;45.29;97626.82;1791175;80;21524;-79
2021/03/26 00:04:51;;;;;;;9.90;5.67;;;;;;;0.69;45.39;97628.12;1733398;83;21643;-78
2021/03/26 00:07:18;;;;;;;11.00;6.13;;;;;;;0.67;45.66;97619.53;1773196;80;21093;-80
2021/03/26 00:09:45;;;;;;;12.03;5.85;;;;;;;0.67;45.22;97626.84;1784834;80;21161;-79
2021/03/26 00:12:15;;;;;;;10.70;5.63;;;;;;;0.65;45.07;97624.74;1784418;80;21164;-80
2021/03/26 00:14:42;;;;;;;10.28;5.20;;;;;;;0.65;45.35;97629.10;1776814;80;21323;-79
2021/03/26 00:17:09;;;;;;;10.67;6.27;;;;;;;0.65;45.52;97621.31;1759959;80;21194;-79
2021/03/26 00:19:37;;;;;;;9.57;5.37;;;;;;;0.66;45.34;97623.85;1732663;83;21296;-80
2021/03/26 00:22:05;;;;;;;11.88;5.47;;;;;;;0.66;45.20;97619.12;1771187;80;21161;-79
2021/03/26 00:24:33;;;;;;;15.72;6.53;;;;;;;0.65;45.42;97624.74;1759307;80;21153;-76
2021/03/26 00:27:00;;;;;;;15.77;6.30;;;;;;;0.66;45.44;97620.42;1759024;80;21255;-79
2021/03/26 00:29:28;;;;;;;14.87;5.60;;;;;;;0.66;45.32;97617.83;1758682;80;21284;-78
2021/03/26 00:31:56;;;;;;;9.63;4.83;;;;;;;0.67;45.65;97619.06;1754884;80;21181;-78
2021/03/26 00:34:24;;;;;;;10.82;6.58;;;;;;;0.68;45.74;97617.34;1743441;81;21283;-79
2021/03/26 00:38:02;;;;;;;9.03;5.37;;;;;;;0.69;45.50;97612.55;1767728;80;21123;-77
2021/03/26 00:40:49;;;;;;;9.13;4.37;;;;;;;0.68;45.33;97617.34;1735543;81;21542;-79
2021/03/26 00:43:18;;;;;;;10.50;5.30;;;;;;;0.64;45.35;97615.72;1755266;81;21106;-78
2021/03/26 00:45:47;;;;;;;10.23;5.17;;;;;;;0.61;45.27;97617.52;1764279;81;21343;-78
2021/03/26 00:48:17;;;;;;;9.20;5.67;;;;;;;0.59;45.82;97623.22;1776252;80;21151;-79
2021/03/26 00:50:50;;;;;;;11.22;6.22;;;;;;;0.58;45.96;97617.63;1792641;80;21163;-78
2021/03/26 00:53:22;;;;;;;8.37;4.87;;;;;;;0.58;45.60;97613.73;1794447;79;21131;-80
2021/03/26 00:55:51;;;;;;;9.03;4.67;;;;;;;0.58;45.69;97618.92;1731654;80;21586;-79
2021/03/26 00:58:19;;;;;;;16.73;5.73;;;;;;;0.55;45.65;97609.93;1789888;80;21108;-77
2021/03/26 01:00:48;;;;;;;12.07;5.90;;;;;;;0.55;45.83;97608.64;1786124;80;21102;-79
2021/03/26 01:03:17;;;;;;;10.15;5.37;;;;;;;0.54;45.89;97608.69;1737015;81;21165;-79
2021/03/26 01:05:57;;;;;;;7.12;4.62;;;;;;;0.53;45.74;97609.59;1733573;81;21177;-79
2021/03/26 01:08:25;;;;;;;10.17;5.50;;;;;;;0.52;45.95;97609.19;1762930;80;21159;-77
2021/03/26 01:11:17;;;;;;;10.27;4.90;;;;;;;0.51;46.39;97610.91;1769915;80;21185;-79
2021/03/26 01:13:46;;;;;;;7.67;5.00;;;;;;;0.50;45.88;97613.56;1786450;80;21128;-79
2021/03/26 01:16:16;;;;;;;9.57;5.33;;;;;;;0.48;46.02;97616.65;1783040;80;21142;-78
2021/03/26 01:18:48;;;;;;;11.00;5.80;;;;;;;0.47;46.05;97611.92;1735221;82;21142;-79
2021/03/26 01:21:27;;;;;;;10.20;5.43;;;;;;;0.46;45.95;97610.22;1765486;80;21107;-77
2021/03/26 01:23:57;;;;;;;10.97;5.03;;;;;;;0.45;46.11;97614.58;1794846;80;21135;-78
2021/03/26 01:26:25;;;;;;;12.30;5.80;;;;;;;0.46;45.98;97611.05;1769061;80;21163;-79
2021/03/26 01:29:06;;;;;;;12.47;5.08;;;;;;;0.52;46.04;97612.61;1779776;79;24883;-78
2021/03/26 01:31:35;;;;;;;10.05;5.00;;;;;;;0.45;46.30;97614.58;1747635;82;21557;-79
2021/03/26 01:34:05;;;;;;;11.43;6.23;;;;;;;0.44;46.09;97612.88;1737749;81;21153;-79
2021/03/26 01:36:35;;;;;;;8.80;4.90;;;;;;;0.44;46.27;97617.20;1724953;83;21184;-78
2021/03/26 01:39:05;;;;;;;9.90;5.47;;;;;;;0.42;46.26;97615.09;1710633;83;21143;-79
2021/03/26 01:41:39;;;;;;;12.18;5.72;;;;;;;0.37;46.23;97618.29;1720237;83;21172;-79
2021/03/26 01:44:10;;;;;;;12.28;5.72;;;;;;;0.35;46.80;97623.53;1713857;84;21159;-78
2021/03/26 01:46:42;;;;;;;9.43;4.97;;;;;;;0.32;46.43;97613.70;1706645;84;21159;-80
2021/03/26 01:49:11;;;;;;;10.43;5.15;;;;;;;0.29;46.48;97618.08;1686354;84;21139;-78
2021/03/26 01:51:46;;;;;;;10.17;5.90;;;;;;;0.28;46.60;97615.09;1659431;85;21597;-78
2021/03/26 01:54:19;;;;;;;8.73;5.08;;;;;;;0.28;46.53;97612.50;1695956;84;21156;-79
2021/03/26 01:56:47;;;;;;;12.28;5.58;;;;;;;0.27;47.08;97613.84;1709952;84;21164;-80
2021/03/26 01:59:40;;;;;;;11.00;5.83;;;;;;;0.30;46.64;97610.70;1818978;79;23625;-79
2021/03/26 02:02:12;;;;;;;11.68;4.70;;;;;;;0.24;46.81;97620.41;1788207;80;21112;-79
2021/03/26 02:04:46;;;;;;;11.27;5.20;;;;;;;0.23;46.73;97620.84;1765336;80;21210;-79
2021/03/26 02:07:18;;;;;;;11.80;5.53;;;;;;;0.22;46.76;97612.69;1750856;81;21266;-79
2021/03/26 02:09:47;;;;;;;10.03;4.97;;;;;;;0.23;47.07;97618.71;1779005;80;21155;-79
2021/03/26 02:12:24;;;;;;;10.63;5.03;;;;;;;0.21;46.97;97625.69;1752450;82;21162;-78
2021/03/26 02:14:59;;;;;;;12.65;6.55;;;;;;;0.15;46.84;97627.58;1758737;81;21324;-80
2021/03/26 02:17:33;;;;;;;11.10;6.12;;;;;;;0.11;47.54;97622.53;1759491;80;21719;-79
2021/03/26 02:20:32;;;;;;;6.55;4.05;;;;;;;0.11;47.38;97623.83;1771825;80;21286;-80
2021/03/26 02:23:25;;;;;;;12.53;5.28;;;;;;;0.10;47.44;97622.95;1766941;80;21273;-80
2021/03/26 02:26:00;;;;;;;10.87;6.00;;;;;;;0.11;47.37;97631.60;1761709;80;21357;-81
2021/03/26 02:28:28;;;;;;;8.83;4.37;;;;;;;0.11;47.44;97634.20;1787924;80;21136;-79
2021/03/26 02:31:00;;;;;;;11.48;5.10;;;;;;;0.11;47.16;97638.08;1784462;80;21576;-78
2021/03/26 02:33:29;;;;;;;10.50;5.30;;;;;;;0.09;47.24;97631.63;1762155;80;21277;-79
2021/03/26 02:36:21;;;;;;;11.27;5.90;;;;;;;0.11;47.84;97640.22;1765950;80;21146;-80
2021/03/26 02:38:57;;;;;;;9.93;5.30;;;;;;;0.11;47.43;97636.79;1786800;80;21155;-80
2021/03/26 02:41:39;;;;;;;10.60;5.30;;;;;;;0.10;47.19;97640.27;1774708;80;21100;-78
2021/03/26 02:44:20;;;;;;;12.88;6.03;;;;;;;0.10;47.17;97636.38;1789244;80;21277;-78
2021/03/26 02:47:01;;;;;;;12.27;5.37;;;;;;;0.09;48.20;97635.52;1762489;80;21187;-79
2021/03/26 02:49:44;;;;;;;10.30;5.83;;;;;;;0.10;47.67;97638.98;1788905;80;21127;-78
2021/03/26 02:52:38;;;;;;;12.03;5.73;;;;;;;0.09;47.73;97638.11;1771195;80;21708;-80
2021/03/26 02:55:50;;;;;;;12.07;6.13;;;;;;;0.10;47.48;97640.27;1776698;80;21173;-79
2021/03/26 02:58:27;;;;;;;14.47;7.10;;;;;;;0.08;47.56;97643.34;1767234;80;21154;-80
2021/03/26 03:01:07;;;;;;;13.00;6.17;;;;;;;0.03;47.58;97640.89;1763873;80;21166;-78
2021/03/26 03:03:37;;;;;;;14.07;6.25;;;;;;;0.02;47.54;97646.97;1784239;80;21147;-79
2021/03/26 03:06:16;;;;;;;12.77;7.10;;;;;;;-0.02;47.62;97647.97;1758974;80;21549;-77
2021/03/26 03:09:13;;;;;;;16.50;6.83;;;;;;;-0.08;47.73;97634.73;1780451;79;24713;-77
2021/03/26 03:12:11;;;;;;;10.90;6.37;;;;;;;-0.04;47.85;97653.17;1743685;82;21147;-79
2021/03/26 03:14:51;;;;;;;11.87;5.83;;;;;;;-0.07;47.93;97653.28;1661731;85;21184;-79
2021/03/26 03:17:41;;;;;;;14.50;8.60;;;;;;;-0.03;48.51;97653.58;1766290;79;24761;-77
2021/03/26 03:20:40;;;;;;;11.00;5.73;;;;;;;-0.09;48.49;97651.63;1725374;82;21152;-77
2021/03/26 03:23:28;;;;;;;11.35;6.37;;;;;;;-0.11;48.33;97652.12;1724912;83;21152;-80
2021/03/26 03:26:19;;;;;;;14.40;6.27;;;;;;;-0.16;48.13;97654.84;1727208;82;21278;-80
2021/03/26 03:29:09;;;;;;;12.80;6.10;;;;;;;-0.20;48.40;97659.69;1713538;82;21266;-80
2021/03/26 03:32:15;;;;;;;13.33;6.37;;;;;;;-0.21;48.65;97661.87;1742715;82;21139;-78
2021/03/26 03:34:55;;;;;;;19.07;6.87;;;;;;;-0.23;48.80;97664.52;1754676;82;21144;-79
2021/03/26 03:37:37;;;;;;;15.20;7.37;;;;;;;-0.25;48.69;97666.30;1734324;82;21277;-80
2021/03/26 03:40:28;;;;;;;13.73;6.13;;;;;;;-0.24;48.81;97666.70;1730404;82;21286;-79
2021/03/26 03:43:15;;;;;;;15.20;6.30;;;;;;;-0.25;49.05;97669.34;1737284;82;21648;-77
2021/03/26 03:45:52;;;;;;;14.23;6.37;;;;;;;-0.28;49.04;97666.41;1740963;82;21100;-79
2021/03/26 03:48:33;;;;;;;13.90;7.10;;;;;;;-0.28;48.53;97659.05;1751703;82;21147;-80
2021/03/26 03:51:21;;;;;;;16.17;6.67;;;;;;;-0.29;48.91;97668.58;1749370;81;21195;-78
2021/03/26 03:54:03;;;;;;;12.53;6.50;;;;;;;-0.30;48.95;97673.36;1730171;82;21176;-78
2021/03/26 03:56:51;;;;;;;14.33;7.40;;;;;;;-0.29;48.84;97675.06;1719298;82;21700;-79
2021/03/26 03:59:38;;;;;;;12.37;6.07;;;;;;;-0.28;48.89;97670.72;1753282;82;21129;-76
2021/03/26 04:02:26;;;;;;;14.57;6.40;;;;;;;-0.28;49.03;97678.06;1729675;82;21148;-78
2021/03/26 04:05:08;;;;;;;13.17;6.80;;;;;;;-0.26;49.39;97685.32;1699525;82;21128;-81
2021/03/26 04:07:56;;;;;;;13.83;7.43;;;;;;;-0.26;49.14;97678.01;1735537;82;21172;-79
2021/03/26 04:10:26;;;;;;;14.77;6.93;;;;;;;-0.27;49.56;97678.89;1712656;82;21223;-78
2021/03/26 04:12:58;;;;;;;22.50;7.80;;;;;;;-0.28;48.84;97679.36;1749779;82;21557;-79
2021/03/26 04:15:39;;;;;;;17.83;7.00;;;;;;;-0.27;49.31;97679.73;1743139;81;21168;-78
2021/03/26 04:18:32;;;;;;;12.90;7.10;;;;;;;-0.27;49.46;97680.19;1714878;82;21133;-79
2021/03/26 04:21:08;;;;;;;;;;;;;;;-0.28;49.49;97680.65;1705126;82;21152;-79
2021/03/26 04:23:55;;;;;;;16.47;7.50;;;;;;;-0.29;50.17;97681.54;1710305;84;20220;-79
2021/03/26 04:26:46;;;;;;;19.10;8.30;;;;;;;-0.29;49.75;97681.54;1714865;82;21224;-80
2021/03/26 04:29:49;;;;;;;14.33;6.70;;;;;;;-0.27;49.73;97681.48;1728049;82;21267;-82
2021/03/26 04:32:21;;;;;;;13.53;6.25;;;;;;;-0.24;50.24;97685.30;1721712;82;21276;-78
2021/03/26 04:34:54;;;;;;;24.53;9.13;;;;;;;-0.24;49.72;97686.14;1700605;82;21109;-78
2021/03/26 04:37:52;;;;;;;16.43;8.43;;;;;;;-0.22;49.85;97686.08;1681966;84;21303;-80
2021/03/26 04:40:35;;;;;;;14.00;6.87;;;;;;;-0.19;50.02;97688.60;1668115;85;21159;-79
2021/03/26 04:43:20;;;;;;;15.43;8.53;;;;;;;-0.14;50.11;97688.47;1659291;86;21692;-80
2021/03/26 04:45:53;;;;;;;13.73;7.03;;;;;;;-0.11;50.05;97690.53;1639431;85;21661;-80
2021/03/26 04:49:11;;;;;;;17.50;7.12;;;;;;;-0.01;50.50;97693.27;1774891;79;24804;-78
2021/03/26 04:51:52;;;;;;;15.00;9.20;;;;;;;-0.04;50.82;97697.23;1724656;83;21278;-78
2021/03/26 04:54:49;;;;;;;17.03;7.97;;;;;;;-0.02;50.31;97694.63;1700589;82;21159;-80
2021/03/26 04:57:56;;;;;;;21.03;9.67;;;;;;;0.02;50.24;97697.97;1737390;82;21262;-79
2021/03/26 05:00:51;;;;;;;17.12;8.68;;;;;;;0.15;50.70;97701.47;1808655;79;24555;-79
2021/03/26 05:03:29;;;;;;;21.30;8.93;;;;;;;0.15;49.98;97704.06;1765932;80;21280;-79
2021/03/26 05:06:15;;;;;;;21.40;8.37;;;;;;;0.19;50.49;97707.84;1763196;80;21143;-81
2021/03/26 05:09:00;;;;;;;25.17;11.63;;;;;;;0.24;50.02;97705.52;1762785;80;21103;-78
2021/03/26 05:11:38;;;;;;;19.47;10.30;;;;;;;0.29;50.60;97705.39;1769298;80;21144;-79
2021/03/26 05:14:12;;;;;;;18.17;7.50;;;;;;;0.33;50.33;97708.74;1786743;80;21258;-79
2021/03/26 05:16:58;;;;;;;22.25;9.08;;;;;;;0.40;49.94;97715.47;1791885;80;21311;-80
2021/03/26 05:19:44;;;;;;;22.40;11.28;;;;;;;0.46;49.75;97715.28;1724808;81;21152;-79
2021/03/26 05:22:55;;;;;;;19.03;8.33;;;;;;;0.52;49.90;97714.25;1765498;80;21270;-79
2021/03/26 05:25:50;;;;;;;22.73;10.43;;;;;;;0.77;50.48;97714.36;1825476;77;24304;-79
2021/03/26 05:28:24;;;;;;;31.23;11.97;;;;;;;1.08;50.28;97718.14;1759389;81;21132;-80
2021/03/26 05:31:18;;;;;;;24.35;10.85;;;;;;;1.62;50.16;97719.40;1757337;81;21096;-80
2021/03/26 05:33:49;;;;;;;23.73;10.90;;;;;;;2.23;49.85;97714.21;1777681;80;21263;-80
2021/03/26 05:36:45;;;;;;;20.92;10.43;;;;;;;2.93;49.28;97723.30;1743104;81;21546;-83
2021/03/26 05:39:35;;;;;;;26.45;12.45;;;;;;;3.46;48.33;97720.74;1763745;81;21162;-80
2021/03/26 05:42:47;;;;;;;27.10;13.18;;;;;;;4.10;47.53;97725.42;1752722;81;21258;-82
2021/03/26 05:45:34;;;;;;;20.10;11.28;;;;;;;4.72;46.10;97723.97;1770078;81;21600;-80
2021/03/26 05:49:00;;;;;;;27.90;13.53;;;;;;;5.35;46.05;97730.56;1646998;87;21168;-78
2021/03/26 05:51:42;;;;;;;27.90;13.20;;;;;;;5.92;45.70;97729.02;1747288;81;21116;-78
2021/03/26 05:54:38;;;;;;;24.77;12.28;;;;;;;6.60;44.45;97735.59;1762060;81;21314;-82
2021/03/26 05:57:51;;;;;;;24.00;14.07;;;;;;;7.18;43.43;97734.15;1768291;80;21174;-85
2021/03/26 06:00:51;;;;;;;23.47;12.80;;;;;;;7.77;41.81;97743.93;1757243;81;21200;-86
2021/03/26 06:04:00;;;;;;;25.08;13.45;;;;;;;8.39;38.81;97738.48;1815676;77;24807;-85
2021/03/26 06:07:43;;;;;;;28.30;14.18;;;;;;;8.69;39.58;97737.53;1794091;80;21186;-87
2021/03/26 06:10:50;;;;;;;27.35;13.83;;;;;;;9.13;40.08;97740.09;1803605;78;21170;-84
2021/03/26 06:14:03;;;;;;;25.95;15.48;;;;;;;9.83;38.78;97734.63;1804232;78;21127;-85
2021/03/26 06:17:05;;;;;;;28.05;14.45;;;;;;;9.83;38.78;97734.63;1754928;80;21159;-84
2021/03/26 06:20:19;;;;;;;24.57;15.80;;;;;;;10.19;37.70;97742.75;1801473;78;21147;-86
2021/03/26 06:23:22;;;;;;;25.37;16.25;;;;;;;10.40;37.63;97738.30;1760402;80;21175;-89
2021/03/26 06:26:34;;;;;;;30.68;16.95;;;;;;;10.76;35.02;97749.37;1772505;79;24299;-84
2021/03/26 06:29:37;;;;;;;29.65;16.32;;;;;;;10.91;36.25;97754.52;1732415;82;21164;-86
2021/03/26 06:32:19;;;;;;;33.53;15.53;;;;;;;11.06;36.65;97742.03;1724162;82;21152;-86
2021/03/26 06:35:35;;;;;;;27.50;15.50;;;;;;;11.35;35.13;97757.55;1723948;82;21168;-86
2021/03/26 06:38:44;;;;;;;34.43;15.38;;;;;;;11.58;35.06;97758.97;1733613;82;21144;-82
2021/03/26 06:41:46;;;;;;;27.48;15.93;;;;;;;11.69;34.20;97758.53;1738962;82;21508;-87
2021/03/26 06:44:44;;;;;;;32.63;17.50;;;;;;;11.73;35.22;97759.17;1690701;82;21152;-89
2021/03/26 06:48:03;;;;;;;28.17;16.30;;;;;;;11.83;34.63;97760.14;1732989;82;21183;-80
2021/03/26 06:50:40;;;;;;;26.05;16.40;;;;;;;11.96;33.23;97761.41;1746862;82;21140;-81
2021/03/26 06:53:38;;;;;;;33.95;16.27;;;;;;;12.20;33.48;97764.48;1736344;82;21174;-83
2021/03/26 06:57:03;;;;;;;28.73;17.55;;;;;;;12.32;32.96;97760.05;1729293;82;21175;-81
2021/03/26 07:00:07;;;;;;;28.62;16.77;;;;;;;12.54;33.80;97766.33;1750841;82;21113;-80
2021/03/26 07:03:02;;;;;;;35.70;17.27;;;;;;;12.78;32.93;97760.44;1690629;85;21750;-84
2021/03/26 07:06:13;;;;;;;31.55;17.75;;;;;;;13.02;32.88;97761.26;1665067;85;21143;-86
2021/03/26 07:08:49;;;;;;;30.17;16.37;;;;;;;13.16;31.57;97757.04;1591988;88;21216;-85
2021/03/26 07:12:02;;;;;;;30.57;15.28;;;;;;;13.11;32.01;97759.20;1635874;87;21298;-84
2021/03/26 07:14:52;;;;;;;24.82;16.87;;;;;;;13.05;32.58;97757.88;1645018;85;21158;-86
2021/03/26 07:17:40;;;;;;;26.77;15.80;;;;;;;12.94;32.39;97765.36;1643140;85;21377;-82
2021/03/26 07:20:49;;;;;;;26.62;16.65;;;;;;;13.25;32.02;97764.70;1772648;79;24949;-86
2021/03/26 07:23:47;;;;;;;31.33;16.62;;;;;;;13.19;30.97;97772.66;1734726;82;21152;-84
2021/03/26 07:26:32;;;;;;;25.35;17.02;;;;;;;13.04;31.23;97772.08;1723078;83;21124;-86
2021/03/26 07:29:53;;;;;;;22.15;15.00;;;;;;;13.06;31.99;97772.80;1737007;82;21136;-84
2021/03/26 07:32:49;;;;;;;25.15;15.88;;;;;;;13.17;32.31;97776.40;1729862;82;21191;-84
2021/03/26 07:35:41;;;;;;;22.22;16.05;;;;;;;13.38;31.94;97770.70;1727664;82;21167;-78
2021/03/26 07:38:37;;;;;;;25.30;14.28;;;;;;;13.45;31.85;97766.25;1730209;82;21109;-81
2021/03/26 07:41:36;;;;;;;22.93;15.55;;;;;;;13.47;31.64;97765.66;1747803;82;21168;-79
2021/03/26 07:44:43;;;;;;;24.18;16.52;;;;;;;13.55;31.92;97764.05;1753616;82;21156;-84
2021/03/26 07:47:43;;;;;;;27.90;17.10;;;;;;;13.71;31.11;97763.62;1741570;81;21128;-81
2021/03/26 07:50:35;;;;;;;22.05;15.32;;;;;;;13.85;30.88;97768.28;1744867;82;21140;-86
2021/03/26 07:53:42;;;;;;;29.57;16.65;;;;;;;13.93;30.86;97767.16;1731319;82;21136;-80
2021/03/26 07:56:33;;;;;;;31.80;16.02;;;;;;;13.94;30.50;97767.98;1753490;81;21105;-81
2021/03/26 07:59:40;;;;;;;25.95;16.00;;;;;;;13.96;30.71;97773.53;1736115;81;21143;-81
2021/03/26 08:02:49;;;;;;;20.72;16.02;;;;;;;14.16;30.54;97772.32;1733051;82;21092;-79
2021/03/26 08:05:52;;;;;;;25.00;16.00;;;;;;;14.23;29.97;97769.53;1736869;82;21183;-83
2021/03/26 08:08:58;;;;;;;27.42;17.02;;;;;;;14.37;29.98;97784.27;1711326;83;21175;-78
2021/03/26 08:11:50;;;;;;;25.00;17.80;;;;;;;14.47;29.42;97773.70;1724793;82;21597;-81
2021/03/26 08:14:48;;;;;;;13.83;8.20;;;;;;;14.56;29.89;97776.89;1725707;82;21132;-81
2021/03/26 08:17:38;;;;;;;25.12;16.80;;;;;;;14.21;27.72;97778.92;1723634;83;21152;-84
2021/03/26 08:20:29;;;;;;;25.65;17.10;;;;;;;13.68;29.83;97784.23;1726774;82;21163;-80
2021/03/26 08:23:19;;;;;;;19.20;11.68;;;;;;;13.64;29.23;97782.33;1728806;82;21200;-83
2021/03/26 08:26:01;;;;;;;21.17;15.25;;;;;;;13.58;29.56;97784.99;1739042;82;21125;-81
2021/03/26 08:28:50;;;;;;;29.98;16.52;;;;;;;13.40;30.01;97785.16;1713537;82;21310;-81
2021/03/26 08:32:01;;;;;;;24.82;16.17;;;;;;;13.46;29.98;97791.77;1710877;83;21149;-80
2021/03/26 08:35:01;;;;;;;25.92;15.83;;;;;;;13.51;29.60;97779.84;1730665;82;21132;-77
2021/03/26 08:38:04;;;;;;;21.37;14.15;;;;;;;13.58;29.81;97786.31;1724825;82;21168;-79
2021/03/26 08:41:05;;;;;;;22.75;13.93;;;;;;;13.53;29.56;97779.71;1733808;82;21204;-82
2021/03/26 08:43:35;;;;;;;18.30;11.97;;;;;;;13.37;29.34;97790.20;1671472;85;21195;-83
2021/03/26 08:46:18;;;;;;;25.27;14.23;;;;;;;12.74;28.77;97792.54;1683090;84;21165;-84
2021/03/26 08:49:00;;;;;;;20.45;13.62;;;;;;;12.62;29.51;97795.67;1654529;84;21184;-85
2021/03/26 08:51:48;;;;;;;13.98;10.15;;;;;;;12.71;29.94;97791.48;1684809;84;21157;-81
2021/03/26 08:55:00;;;;;;;20.12;12.93;;;;;;;12.46;29.11;97793.36;1693845;84;21210;-87
2021/03/26 08:57:50;;;;;;;21.80;14.03;;;;;;;11.85;29.33;97791.25;1715525;82;21160;-78
2021/03/26 09:00:38;;;;;;;19.73;13.62;;;;;;;11.69;30.32;97789.39;1714227;82;21164;-84
2021/03/26 09:03:38;;;;;;;23.98;14.95;;;;;;;11.78;29.82;97795.80;1709989;84;21193;-84
2021/03/26 09:06:44;;;;;;;22.55;12.90;;;;;;;11.75;30.41;97792.89;1703407;84;21203;-86
2021/03/26 09:09:55;;;;;;;;;;;;;;;;;;;;;
2021/03/26 09:13:03;;;;;;;17.75;12.47;;;;;;;12.16;29.42;97796.05;1820013;79;24648;-84
2021/03/26 09:15:48;;;;;;;19.35;11.63;;;;;;;12.14;29.95;97792.71;1775625;80;21175;-87
2021/03/26 09:18:52;;;;;;;16.70;10.72;;;;;;;12.17;29.47;97801.70;1780399;80;21124;-88
2021/03/26 09:21:53;;;;;;;19.48;11.95;;;;;;;12.12;29.56;97805.19;1791211;80;21137;-87
2021/03/26 09:24:41;;;;;;;19.67;13.15;;;;;;;12.20;29.87;97804.13;1720625;83;21165;-87
2021/03/26 09:27:25;;;;;;;19.87;12.68;;;;;;;12.26;29.80;97800.18;1718533;83;21152;-83
2021/03/26 09:30:23;;;;;;;22.10;13.70;;;;;;;12.23;29.77;97801.27;1717508;81;21167;-85
2021/03/26 09:32:56;;;;;;;;;;;;;;;12.16;29.66;97804.84;1727711;81;21595;-87
2021/03/26 09:35:45;;;;;;;18.00;9.90;;;;;;;12.16;29.19;97806.63;1725912;82;20497;-86
2021/03/26 09:38:35;;;;;;;23.38;13.18;;;;;;;11.71;29.85;97801.52;1724457;82;21164;-87
2021/03/26 09:41:24;;;;;;;18.80;11.93;;;;;;;11.53;30.00;97806.37;1718921;83;21593;-88
2021/03/26 09:44:01;;;;;;;22.73;12.18;;;;;;;11.47;30.08;97795.41;1733230;82;21589;-88
2021/03/26 09:46:43;;;;;;;21.23;12.75;;;;;;;11.42;30.17;97801.02;1716504;81;21172;-85
2021/03/26 09:49:48;;;;;;;19.55;13.05;;;;;;;11.41;30.04;97800.65;1718874;83;21709;-87
2021/03/26 09:52:42;;;;;;;15.78;10.20;;;;;;;11.39;30.00;97794.17;1719561;83;21143;-85
2021/03/26 09:55:22;;;;;;;15.85;10.75;;;;;;;11.30;30.20;97794.84;1715702;83;22525;-84
2021/03/26 09:58:33;;;;;;;21.07;13.05;;;;;;;11.25;29.85;97794.31;1705140;83;21642;-88
2021/03/26 10:01:21;;;;;;;21.35;11.78;;;;;;;11.18;30.00;97789.94;1700875;83;21145;-87
2021/03/26 10:04:15;;;;;;;16.52;9.40;;;;;;;11.23;30.31;97789.61;1725277;83;21180;-87
2021/03/26 10:07:28;;;;;;;17.62;10.80;;;;;;;11.32;29.12;97794.22;1756477;79;24343;-89
2021/03/26 10:10:43;;;;;;;14.95;10.08;;;;;;;11.25;29.77;97793.84;1722365;83;21155;-88
2021/03/26 10:12:28;;;;;;;16.17;10.20;;;;;;;11.22;29.20;97798.52;1726068;82;21583;-87
2021/03/26 10:15:03;;;;;;;16.20;10.13;;;;;;;11.15;29.58;97789.32;1724242;82;21109;-89
2021/03/26 10:17:45;;;;;;;16.45;9.68;;;;;;;11.11;29.33;97791.34;1691661;84;21151;-85
2021/03/26 10:20:30;;;;;;;15.60;10.18;;;;;;;11.17;29.52;97794.02;1691627;85;21190;-84
2021/03/26 10:23:30;;;;;;;18.17;9.10;;;;;;;11.21;29.38;97791.05;1686804;84;21179;-87
2021/03/26 10:26:12;;;;;;;14.75;9.28;;;;;;;11.25;29.17;97795.17;1684490;85;21181;-87
2021/03/26 10:28:50;;;;;;;14.80;10.13;;;;;;;11.21;28.62;97787.09;1684815;85;21322;-88
2021/03/26 10:31:32;;;;;;;16.30;11.33;;;;;;;10.86;28.81;97771.99;1707637;84;21168;-87
2021/03/26 10:34:04;;;;;;;17.55;11.30;;;;;;;10.97;29.36;97786.22;1684447;85;21147;-87
2021/03/26 10:37:00;;;;;;;20.15;13.28;;;;;;;11.07;29.81;97785.94;1690760;84;21172;-88
2021/03/26 10:39:48;;;;;;;22.60;14.23;;;;;;;11.17;30.03;97784.78;1687766;84;21167;-90
2021/03/26 10:42:50;;;;;;;27.32;15.13;;;;;;;11.28;30.40;97787.96;1705652;84;21152;-87
2021/03/26 10:45:44;;;;;;;22.90;14.70;;;;;;;11.35;30.60;97783.45;1691640;84;21128;-86
2021/03/26 10:48:41;;;;;;;19.87;14.07;;;;;;;11.39;30.96;97788.03;1692049;84;21152;-87
2021/03/26 10:51:30;;;;;;;23.70;15.40;;;;;;;11.45;31.06;97786.75;1713104;83;21163;-88
2021/03/26 10:54:21;;;;;;;24.07;14.58;;;;;;;11.54;31.19;97786.08;1691567;83;21603;-88
2021/03/26 10:57:23;;;;;;;19.52;13.68;;;;;;;11.62;31.07;97777.60;1683618;85;21167;-83
2021/03/26 11:00:04;;;;;;;22.75;14.85;;;;;;;11.70;30.97;97782.66;1676140;85;21199;-84
2021/03/26 11:02:56;;;;;;;24.63;15.68;;;;;;;11.69;30.33;97786.75;1672082;85;21269;-85
2021/03/26 11:05:56;;;;;;;26.95;15.70;;;;;;;11.66;30.96;97776.41;1665572;85;21287;-87
2021/03/26 11:08:41;;;;;;;25.05;16.07;;;;;;;11.63;30.90;97777.97;1630467;88;21212;-84
2021/03/26 11:11:38;;;;;;;20.60;14.15;;;;;;;11.66;31.28;97770.66;1649971;87;21346;-89
2021/03/26 11:14:20;;;;;;;28.73;15.80;;;;;;;11.74;31.29;97771.39;1643166;86;21145;-83
2021/03/26 11:17:19;;;;;;;21.75;16.12;;;;;;;11.77;31.48;97765.06;1648384;86;21187;-84
2021/03/26 11:20:22;;;;;;;16.70;11.57;;;;;;;11.81;31.65;97768.68;1643207;86;21636;-83
2021/03/26 11:23:06;;;;;;;23.40;16.20;;;;;;;11.88;31.56;97756.69;1645999;87;21616;-83
2021/03/26 11:25:39;;;;;;;25.27;16.32;;;;;;;11.92;31.79;97760.43;1634693;87;21209;-88
2021/03/26 11:28:37;;;;;;;24.25;15.78;;;;;;;11.94;31.84;97757.17;1626375;87;21293;-83
2021/03/26 11:31:40;;;;;;;24.60;17.27;;;;;;;12.02;31.92;97758.78;1807854;78;24727;-85
2021/03/26 11:34:45;;;;;;;22.42;16.07;;;;;;;12.02;32.06;97760.97;1796090;78;21137;-84
2021/03/26 11:37:37;;;;;;;27.70;15.93;;;;;;;12.10;32.18;97755.57;1797780;78;21140;-81
2021/03/26 11:40:34;;;;;;;22.98;16.00;;;;;;;12.19;31.82;97758.83;1803143;78;21583;-82
2021/03/26 11:43:18;;;;;;;27.87;15.65;;;;;;;12.28;31.87;97750.20;1816187;78;21541;-82
2021/03/26 11:46:09;;;;;;;27.35;15.48;;;;;;;12.31;31.85;97750.44;1825086;78;21683;-83
2021/03/26 11:49:14;;;;;;;24.40;16.65;;;;;;;12.33;32.00;97740.59;1793887;79;21155;-83
2021/03/26 11:52:03;;;;;;;19.17;10.40;;;;;;;12.38;31.79;97741.09;1799756;78;21162;-83
2021/03/26 11:54:50;;;;;;;22.20;15.15;;;;;;;12.35;30.56;97740.00;1759685;81;21174;-77
2021/03/26 11:57:52;;;;;;;19.75;12.10;;;;;;;12.37;31.59;97735.91;1851658;77;24672;-80
2021/03/26 12:00:30;;;;;;;20.90;14.95;;;;;;;12.32;31.19;97731.84;1825066;77;21156;-86
2021/03/26 12:03:20;;;;;;;28.30;15.38;;;;;;;12.27;31.66;97732.66;1806855;79;21147;-82
2021/03/26 12:06:13;;;;;;;17.57;12.28;;;;;;;12.33;31.50;97730.02;1757956;78;21109;-85
2021/03/26 12:09:22;;;;;;;21.17;14.25;;;;;;;12.26;31.49;97721.72;1824813;78;21097;-87
2021/03/26 12:12:11;;;;;;;19.65;13.98;;;;;;;12.29;31.65;97722.81;1828287;78;21558;-85
2021/03/26 12:15:13;;;;;;;21.48;14.58;;;;;;;12.30;31.47;97687.48;1820016;79;23640;-82
2021/03/26 12:17:49;;;;;;;24.07;14.18;;;;;;;12.44;31.44;97712.84;1791304;80;21151;-87
2021/03/26 12:20:25;;;;;;;18.75;13.32;;;;;;;12.53;31.70;97711.77;1793317;80;21134;-86
2021/03/26 12:23:03;;;;;;;21.85;13.45;;;;;;;12.62;31.49;97707.07;1792971;80;21131;-85
2021/03/26 12:25:51;;;;;;;17.00;11.60;;;;;;;12.70;31.44;97703.83;1793397;80;21154;-84
2021/03/26 12:28:57;;;;;;;23.02;13.03;;;;;;;12.78;31.34;97702.73;1792834;80;21147;-84
2021/03/26 12:31:55;;;;;;;22.13;12.70;;;;;;;12.78;31.26;97698.27;1793135;80;21155;-86
2021/03/26 12:34:56;;;;;;;19.02;12.30;;;;;;;12.85;31.13;97693.34;1793018;80;21116;-83
2021/03/26 12:37:58;;;;;;;24.65;13.00;;;;;;;12.92;31.29;97692.37;1791447;80;21588;-81
2021/03/26 12:40:45;;;;;;;21.65;14.73;;;;;;;12.92;31.15;97691.05;1789982;80;21512;-79
2021/03/26 12:43:48;;;;;;;14.80;10.50;;;;;;;12.91;31.04;97690.19;1793498;80;21335;-77
2021/03/26 12:46:24;;;;;;;22.55;12.63;;;;;;;12.95;31.04;97693.42;1793276;80;21561;-83
2021/03/26 12:49:04;;;;;;;24.70;13.75;;;;;;;12.92;31.14;97691.05;1778096;80;21623;-88
2021/03/26 12:51:49;;;;;;;21.73;12.30;;;;;;;12.90;31.15;97686.36;1786443;80;21137;-83
2021/03/26 12:54:35;;;;;;;17.77;12.87;;;;;;;12.85;30.94;97685.40;1760980;81;21182;-86
2021/03/26 12:57:22;;;;;;;19.27;13.35;;;;;;;12.83;31.04;97693.11;1760532;81;21147;-87
2021/03/26 13:00:27;;;;;;;20.52;13.70;;;;;;;12.81;31.42;97678.20;1732761;81;21151;-85
2021/03/26 13:03:06;;;;;;;19.02;12.98;;;;;;;12.81;30.99;97678.66;1762061;81;21168;-83
2021/03/26 13:05:35;;;;;;;20.25;13.20;;;;;;;12.78;31.26;97675.79;1726675;83;21156;-82